createdAt,value
2018-07-02T00:01:13.060Z,96724.00
2018-07-02T00:03:43.483Z,96726.00
2018-07-02T00:06:41.563Z,96723.00
2018-07-02T00:09:12.033Z,96725.00
2018-07-02T00:11:42.480Z,96725.00
2018-07-02T00:14:12.994Z,96725.00
2018-07-02T00:16:43.511Z,96717.00
2018-07-02T00:19:13.939Z,96714.00
2018-07-02T00:21:44.161Z,96713.00
2018-07-02T00:24:14.980Z,96718.00
2018-07-02T00:26:45.446Z,96714.00
2018-07-02T00:29:15.800Z,96714.00
2018-07-02T00:31:46.131Z,96716.00
2018-07-02T00:34:16.435Z,96714.00
2018-07-02T00:36:47.066Z,96715.00
2018-07-02T00:39:17.731Z,96715.00
2018-07-02T00:41:48.224Z,96715.00
2018-07-02T00:44:18.719Z,96719.00
2018-07-02T00:46:49.319Z,96721.00
2018-07-02T00:49:19.954Z,96721.00
2018-07-02T00:51:50.491Z,96720.00
2018-07-02T00:54:21.009Z,96722.00
2018-07-02T00:56:51.383Z,96718.00
2018-07-02T00:59:22.208Z,96708.00
2018-07-02T01:02:11.739Z,96717.00
2018-07-02T01:04:42.187Z,96714.00
2018-07-02T01:07:12.745Z,96712.00
2018-07-02T01:09:43.298Z,96710.00
2018-07-02T01:12:13.393Z,96706.00
2018-07-02T01:14:44.055Z,96706.00
2018-07-02T01:17:14.523Z,96702.00
2018-07-02T01:19:44.952Z,96696.00
2018-07-02T01:22:15.387Z,96705.00
2018-07-02T01:24:45.754Z,96709.00
2018-07-02T01:27:16.127Z,96712.00
2018-07-02T01:29:46.788Z,96705.00
2018-07-02T01:32:17.223Z,96702.00
2018-07-02T01:34:47.767Z,96696.00
2018-07-02T01:37:18.341Z,96700.00
2018-07-02T01:39:48.536Z,96700.00
2018-07-02T01:42:19.183Z,96705.00
2018-07-02T01:44:49.492Z,96707.00
2018-07-02T01:47:20.132Z,96710.00
2018-07-02T01:49:50.508Z,96706.00
2018-07-02T01:52:20.947Z,96713.00
2018-07-02T01:54:51.407Z,96712.00
2018-07-02T01:57:21.790Z,96711.00
2018-07-02T01:59:52.395Z,96706.00
2018-07-02T02:02:22.758Z,96713.00
2018-07-02T02:04:53.452Z,96719.00
2018-07-02T02:07:24.079Z,96714.00
2018-07-02T02:09:54.373Z,96711.00
2018-07-02T02:12:24.872Z,96714.00
2018-07-02T02:14:55.303Z,96706.00
2018-07-02T02:17:25.956Z,96704.00
2018-07-02T02:19:56.503Z,96709.00
2018-07-02T02:22:26.883Z,96706.00
2018-07-02T02:25:20.946Z,96709.00
2018-07-02T02:27:51.574Z,96710.00
2018-07-02T02:30:22.007Z,96707.00
2018-07-02T02:32:52.474Z,96705.00
2018-07-02T02:35:23.128Z,96706.00
2018-07-02T02:37:53.660Z,96705.00
2018-07-02T02:40:24.303Z,96694.00
2018-07-02T02:42:54.927Z,96704.00
2018-07-02T02:45:25.526Z,96705.00
2018-07-02T02:47:56.216Z,96710.00
2018-07-02T02:50:26.760Z,96711.00
2018-07-02T02:52:57.173Z,96701.00
2018-07-02T02:55:27.796Z,96707.00
2018-07-02T02:57:58.020Z,96715.00
2018-07-02T03:00:28.054Z,96726.00
2018-07-02T03:02:58.565Z,96728.00
2018-07-02T03:05:28.959Z,96722.00
2018-07-02T03:07:59.478Z,96719.00
2018-07-02T03:10:30.069Z,96722.00
2018-07-02T03:13:01.671Z,96719.00
2018-07-02T03:15:32.043Z,96727.00
2018-07-02T03:18:02.657Z,96728.00
2018-07-02T03:20:33.016Z,96735.00
2018-07-02T03:23:03.585Z,96741.00
2018-07-02T03:25:34.149Z,96740.00
2018-07-02T03:28:04.607Z,96740.00
2018-07-02T03:30:35.144Z,96733.00
2018-07-02T03:33:05.705Z,96738.00
2018-07-02T03:35:36.095Z,96739.00
2018-07-02T03:38:06.658Z,96736.00
2018-07-02T03:40:37.256Z,96734.00
2018-07-02T03:43:07.822Z,96730.00
2018-07-02T03:45:38.316Z,96736.00
2018-07-02T03:48:08.694Z,96730.00
2018-07-02T03:50:39.259Z,96736.00
2018-07-02T03:53:09.843Z,96744.00
2018-07-02T03:55:40.400Z,96743.00
2018-07-02T03:58:11.045Z,96729.00
2018-07-02T04:00:42.571Z,96724.00
2018-07-02T04:03:13.248Z,96730.00
2018-07-02T04:05:43.738Z,96729.00
2018-07-02T04:08:14.287Z,96723.00
2018-07-02T04:10:45.728Z,96722.00
2018-07-02T04:13:16.508Z,96729.00
2018-07-02T04:15:46.982Z,96729.00
2018-07-02T04:18:17.478Z,96740.00
2018-07-02T04:21:17.484Z,96733.00
2018-07-02T04:23:48.019Z,96736.00
2018-07-02T04:26:18.680Z,96735.00
2018-07-02T04:28:49.107Z,96743.00
2018-07-02T04:31:19.666Z,96741.00
2018-07-02T04:33:50.135Z,96738.00
2018-07-02T04:36:20.552Z,96735.00
2018-07-02T04:38:51.221Z,96728.00
2018-07-02T04:41:21.641Z,96733.00
2018-07-02T04:43:52.316Z,96738.00
2018-07-02T04:46:22.831Z,96743.00
2018-07-02T04:48:53.681Z,96746.00
2018-07-02T04:51:24.315Z,96741.00
2018-07-02T04:53:54.947Z,96733.00
2018-07-02T04:56:25.563Z,96734.00
2018-07-02T04:58:56.063Z,96736.00
2018-07-02T05:01:26.432Z,96744.00
2018-07-02T05:03:56.853Z,96746.00
2018-07-02T05:06:27.235Z,96735.00
2018-07-02T05:08:57.719Z,96738.00
2018-07-02T05:11:28.214Z,96743.00
2018-07-02T05:13:59.146Z,96738.00
2018-07-02T05:16:29.804Z,96742.00
2018-07-02T05:19:00.378Z,96744.00
2018-07-02T05:21:30.743Z,96750.00
2018-07-02T05:24:01.232Z,96748.00
2018-07-02T05:26:31.685Z,96754.00
2018-07-02T05:29:02.121Z,96759.00
2018-07-02T05:31:32.575Z,96757.00
2018-07-02T05:34:07.017Z,96761.00
2018-07-02T05:36:37.682Z,96761.00
2018-07-02T05:39:11.260Z,96760.00
2018-07-02T05:41:41.698Z,96757.00
2018-07-02T05:44:12.455Z,96760.00
2018-07-02T05:46:42.941Z,96748.00
2018-07-02T05:49:12.915Z,96751.00
2018-07-02T05:51:43.340Z,96750.00
2018-07-02T05:54:13.758Z,96759.00
2018-07-02T05:56:44.436Z,96767.00
2018-07-02T05:59:14.952Z,96759.00
2018-07-02T06:01:45.412Z,96761.00
2018-07-02T06:04:16.043Z,96757.00
2018-07-02T06:06:46.722Z,96762.00
2018-07-02T06:09:17.110Z,96767.00
2018-07-02T06:11:54.515Z,96761.00
2018-07-02T06:14:28.044Z,96764.00
2018-07-02T06:16:58.607Z,96762.00
2018-07-02T06:19:41.632Z,96759.00
2018-07-02T06:22:12.078Z,96765.00
2018-07-02T06:24:42.472Z,96765.00
2018-07-02T06:27:12.995Z,96770.00
2018-07-02T06:29:43.543Z,96769.00
2018-07-02T06:32:13.924Z,96767.00
2018-07-02T06:34:44.343Z,96770.00
2018-07-02T06:37:14.784Z,96767.00
2018-07-02T06:39:45.143Z,96765.00
2018-07-02T06:42:15.625Z,96764.00
2018-07-02T06:44:46.224Z,96766.00
2018-07-02T06:47:16.542Z,96770.00
2018-07-02T06:49:46.952Z,96776.00
2018-07-02T06:52:17.422Z,96783.00
2018-07-02T06:54:47.734Z,96781.00
2018-07-02T06:57:18.096Z,96789.00
2018-07-02T06:59:48.445Z,96785.00
2018-07-02T07:02:18.744Z,96789.00
2018-07-02T07:04:49.119Z,96785.00
2018-07-02T07:07:19.575Z,96785.00
2018-07-02T07:09:49.902Z,96784.00
2018-07-02T07:12:20.554Z,96786.00
2018-07-02T07:14:50.943Z,96776.00
2018-07-02T07:17:21.243Z,96773.00
2018-07-02T07:19:51.519Z,96777.00
2018-07-02T07:22:21.922Z,96779.00
2018-07-02T07:24:52.231Z,96773.00
2018-07-02T07:27:22.589Z,96773.00
2018-07-02T07:29:53.224Z,96780.00
2018-07-02T07:32:23.618Z,96777.00
2018-07-02T07:34:54.140Z,96776.00
2018-07-02T07:37:24.614Z,96774.00
2018-07-02T07:39:55.173Z,96771.00
2018-07-02T07:42:25.512Z,96779.00
2018-07-02T07:44:56.029Z,96771.00
2018-07-02T07:47:26.378Z,96782.00
2018-07-02T07:49:56.832Z,96779.00
2018-07-02T07:52:27.155Z,96791.00
2018-07-02T07:54:57.665Z,96796.00
2018-07-02T07:57:30.234Z,96786.00
2018-07-02T08:00:00.704Z,96790.00
2018-07-02T08:02:31.186Z,96792.00
2018-07-02T08:05:01.479Z,96792.00
2018-07-02T08:07:32.004Z,96788.00
2018-07-02T08:10:02.547Z,96792.00
2018-07-02T08:12:32.920Z,96783.00
2018-07-02T08:15:03.399Z,96781.00
2018-07-02T08:17:34.875Z,96781.00
2018-07-02T08:20:05.931Z,96792.00
2018-07-02T08:22:36.208Z,96790.00
2018-07-02T08:25:06.799Z,96786.00
2018-07-02T08:27:36.945Z,96777.00
2018-07-02T08:30:08.736Z,96778.00
2018-07-02T08:32:39.287Z,96768.00
2018-07-02T08:35:09.695Z,96779.00
2018-07-02T08:37:40.310Z,96771.00
2018-07-02T08:40:10.649Z,96769.00
2018-07-02T08:42:41.138Z,96769.00
2018-07-02T08:45:11.131Z,96764.00
2018-07-02T08:47:41.499Z,96766.00
2018-07-02T08:50:11.863Z,96765.00
2018-07-02T08:52:42.394Z,96757.00
2018-07-02T08:55:12.789Z,96752.00
2018-07-02T08:57:43.091Z,96749.00
2018-07-02T09:00:13.550Z,96755.00
2018-07-02T09:02:43.955Z,96755.00
2018-07-02T09:05:14.335Z,96754.00
2018-07-02T09:07:44.712Z,96752.00
2018-07-02T09:10:15.105Z,96759.00
2018-07-02T09:12:45.636Z,96758.00
2018-07-02T09:15:16.040Z,96758.00
2018-07-02T09:17:46.416Z,96759.00
2018-07-02T09:20:16.702Z,96755.00
2018-07-02T09:22:47.190Z,96753.00
2018-07-02T09:25:17.519Z,96757.00
2018-07-02T09:27:47.919Z,96751.00
2018-07-02T09:30:18.367Z,96752.00
2018-07-02T09:32:48.735Z,96751.00
2018-07-02T09:35:19.075Z,96737.00
2018-07-02T09:37:49.462Z,96746.00
2018-07-02T09:40:19.903Z,96742.00
2018-07-02T09:42:50.355Z,96739.00
2018-07-02T09:45:20.777Z,96742.00
2018-07-02T09:47:51.175Z,96747.00
2018-07-02T09:50:21.776Z,96742.00
2018-07-02T09:52:51.741Z,96741.00
2018-07-02T09:55:22.088Z,96741.00
2018-07-02T09:57:52.729Z,96740.00
2018-07-02T10:00:36.925Z,96738.00
2018-07-02T10:03:09.691Z,96742.00
2018-07-02T10:05:40.328Z,96735.00
2018-07-02T10:08:10.714Z,96740.00
2018-07-02T10:10:41.082Z,96729.00
2018-07-02T10:13:11.531Z,96733.00
2018-07-02T10:15:42.071Z,96739.00
2018-07-02T10:18:12.439Z,96734.00
2018-07-02T10:20:42.827Z,96730.00
2018-07-02T10:23:13.297Z,96734.00
2018-07-02T10:25:43.784Z,96735.00
2018-07-02T10:28:14.354Z,96731.00
2018-07-02T10:30:44.724Z,96732.00
2018-07-02T10:33:15.119Z,96728.00
2018-07-02T10:35:45.438Z,96732.00
2018-07-02T10:38:15.951Z,96732.00
2018-07-02T10:40:46.367Z,96738.00
2018-07-02T10:43:16.758Z,96743.00
2018-07-02T10:45:47.178Z,96739.00
2018-07-02T10:48:23.361Z,96740.00
2018-07-02T10:50:54.129Z,96732.00
2018-07-02T10:53:24.675Z,96737.00
2018-07-02T10:55:55.019Z,96737.00
2018-07-02T10:58:25.581Z,96741.00
2018-07-02T11:00:55.916Z,96726.00
2018-07-02T11:03:26.434Z,96727.00
2018-07-02T11:05:56.759Z,96729.00
2018-07-02T11:08:27.368Z,96734.00
2018-07-02T11:10:57.826Z,96726.00
2018-07-02T11:13:28.262Z,96732.00
2018-07-02T11:15:58.641Z,96733.00
2018-07-02T11:18:28.863Z,96739.00
2018-07-02T11:20:59.323Z,96731.00
2018-07-02T11:23:35.083Z,96733.00
2018-07-02T11:26:05.628Z,96733.00
2018-07-02T11:28:36.096Z,96714.00
2018-07-02T11:31:06.305Z,96722.00
2018-07-02T11:33:36.699Z,96716.00
2018-07-02T11:36:07.224Z,96719.00
2018-07-02T11:38:37.521Z,96719.00
2018-07-02T11:41:07.892Z,96713.00
2018-07-02T11:43:38.253Z,96712.00
2018-07-02T11:46:08.702Z,96713.00
2018-07-02T11:48:38.992Z,96713.00
2018-07-02T11:51:09.298Z,96716.00
2018-07-02T11:53:39.567Z,96712.00
2018-07-02T11:56:09.963Z,96716.00
2018-07-02T11:58:40.424Z,96714.00
2018-07-02T12:01:10.715Z,96714.00
2018-07-02T12:03:41.102Z,96717.00
2018-07-02T12:06:15.303Z,96719.00
2018-07-02T12:08:45.661Z,96718.00
2018-07-02T12:11:15.939Z,96714.00
2018-07-02T12:13:46.375Z,96715.00
2018-07-02T12:16:16.856Z,96711.00
2018-07-02T12:18:47.353Z,96721.00
2018-07-02T12:21:17.734Z,96715.00
2018-07-02T12:23:48.108Z,96723.00
2018-07-02T12:26:18.497Z,96720.00
2018-07-02T12:28:48.927Z,96717.00
2018-07-02T12:31:19.410Z,96721.00
2018-07-02T12:33:49.961Z,96718.00
2018-07-02T12:36:20.710Z,96711.00
2018-07-02T12:38:51.199Z,96713.00
2018-07-02T12:41:21.475Z,96706.00
2018-07-02T12:43:51.951Z,96708.00
2018-07-02T12:46:22.497Z,96710.00
2018-07-02T12:48:52.731Z,96712.00
2018-07-02T12:51:23.167Z,96712.00
2018-07-02T12:53:53.673Z,96708.00
2018-07-02T12:56:24.927Z,96711.00
2018-07-02T12:58:55.653Z,96706.00
2018-07-02T13:01:26.103Z,96709.00
2018-07-02T13:03:56.543Z,96713.00
2018-07-02T13:06:26.752Z,96702.00
2018-07-02T13:08:57.137Z,96704.00
2018-07-02T13:11:27.454Z,96698.00
2018-07-02T13:13:57.901Z,96702.00
2018-07-02T13:16:28.430Z,96694.00
2018-07-02T13:18:58.735Z,96699.00
2018-07-02T13:21:29.161Z,96697.00
2018-07-02T13:23:59.429Z,96690.00
2018-07-02T13:26:30.049Z,96688.00
2018-07-02T13:29:00.319Z,96696.00
2018-07-02T13:31:30.978Z,96699.00
2018-07-02T13:34:01.295Z,96695.00
2018-07-02T13:36:31.559Z,96698.00
2018-07-02T13:39:01.999Z,96689.00
2018-07-02T13:41:32.555Z,96685.00
2018-07-02T13:44:02.849Z,96682.00
2018-07-02T13:46:33.337Z,96685.00
2018-07-02T13:49:03.733Z,96673.00
2018-07-02T13:51:34.123Z,96683.00
2018-07-02T13:54:04.502Z,96683.00
2018-07-02T13:56:35.380Z,96681.00
2018-07-02T13:59:05.338Z,96682.00
2018-07-02T14:01:35.628Z,96685.00
2018-07-02T14:04:06.124Z,96684.00
2018-07-02T14:06:36.427Z,96674.00
2018-07-02T14:09:10.785Z,96669.00
2018-07-02T14:11:42.043Z,96672.00
2018-07-02T14:14:12.505Z,96667.00
2018-07-02T14:16:42.800Z,96666.00
2018-07-02T14:19:13.285Z,96663.00
2018-07-02T14:21:43.859Z,96663.00
2018-07-02T14:24:14.485Z,96659.00
2018-07-02T14:26:44.874Z,96661.00
2018-07-02T14:29:15.276Z,96670.00
2018-07-02T14:31:45.763Z,96671.00
2018-07-02T14:34:15.982Z,96666.00
2018-07-02T14:36:45.863Z,96667.00
2018-07-02T14:39:16.480Z,96656.00
2018-07-02T14:41:47.160Z,96663.00
2018-07-02T14:44:17.449Z,96659.00
2018-07-02T14:46:47.701Z,96659.00
2018-07-02T14:49:18.185Z,96662.00
2018-07-02T14:51:48.644Z,96655.00
2018-07-02T14:54:18.593Z,96658.00
2018-07-02T14:56:51.776Z,96660.00
2018-07-02T14:59:22.805Z,96666.00
2018-07-02T15:01:53.250Z,96656.00
2018-07-02T15:04:23.847Z,96652.00
2018-07-02T15:06:54.472Z,96653.00
2018-07-02T15:09:25.107Z,96648.00
2018-07-02T15:11:56.198Z,96657.00
2018-07-02T15:14:26.856Z,96665.00
2018-07-02T15:16:57.390Z,96663.00
2018-07-02T15:19:28.241Z,96667.00
2018-07-02T15:21:59.203Z,96666.00
2018-07-02T15:24:30.113Z,96669.00
2018-07-02T15:27:00.664Z,96664.00
2018-07-02T15:29:31.417Z,96666.00
2018-07-02T15:32:02.145Z,96666.00
2018-07-02T15:34:32.701Z,96662.00
2018-07-02T15:37:03.346Z,96663.00
2018-07-02T15:39:33.805Z,96664.00
2018-07-02T15:42:06.008Z,96660.00
2018-07-02T15:44:36.433Z,96656.00
2018-07-02T15:47:07.121Z,96654.00
2018-07-02T15:49:37.735Z,96662.00
2018-07-02T15:52:09.050Z,96660.00
2018-07-02T15:54:39.788Z,96658.00
2018-07-02T15:57:22.563Z,96660.00
2018-07-02T15:59:53.059Z,96664.00
2018-07-02T16:02:23.998Z,96660.00
2018-07-02T16:04:54.294Z,96661.00
2018-07-02T16:07:28.640Z,96654.00
2018-07-02T16:09:59.003Z,96658.00
2018-07-02T16:12:29.481Z,96654.00
2018-07-02T16:14:59.869Z,96646.00
2018-07-02T16:17:30.345Z,96644.00
2018-07-02T16:20:01.250Z,96644.00
2018-07-02T16:22:31.573Z,96647.00
2018-07-02T16:25:02.152Z,96652.00
2018-07-02T16:27:32.854Z,96652.00
2018-07-02T16:30:03.358Z,96647.00
2018-07-02T16:32:33.628Z,96656.00
2018-07-02T16:35:07.267Z,96656.00
2018-07-02T16:37:37.596Z,96663.00
2018-07-02T16:40:08.266Z,96656.00
2018-07-02T16:42:38.847Z,96654.00
2018-07-02T16:45:09.074Z,96657.00
2018-07-02T16:47:39.542Z,96660.00
2018-07-02T16:50:09.915Z,96660.00
2018-07-02T16:52:40.539Z,96656.00
2018-07-02T16:55:11.034Z,96660.00
2018-07-02T17:00:53.061Z,96663.00
2018-07-02T17:03:23.520Z,96669.00
2018-07-02T17:05:54.150Z,96669.00
2018-07-02T17:08:37.853Z,96668.00
2018-07-02T17:11:08.269Z,96664.00
2018-07-02T17:13:38.713Z,96661.00
2018-07-02T17:16:09.107Z,96668.00
2018-07-02T17:18:39.609Z,96665.00
2018-07-02T17:21:10.132Z,96665.00
2018-07-02T17:23:40.985Z,96667.00
2018-07-02T17:26:11.992Z,96663.00
2018-07-02T17:28:42.996Z,96654.00
2018-07-02T17:31:14.019Z,96665.00
2018-07-02T17:33:45.040Z,96664.00
2018-07-02T17:36:16.049Z,96668.00
2018-07-02T17:38:47.062Z,96670.00
2018-07-02T17:41:17.755Z,96678.00
2018-07-02T17:43:48.411Z,96682.00
2018-07-02T17:46:19.613Z,96683.00
2018-07-02T17:48:50.371Z,96685.00
2018-07-02T17:51:21.244Z,96687.00
2018-07-02T17:53:52.320Z,96686.00
2018-07-02T17:56:28.159Z,96689.00
2018-07-02T17:58:58.868Z,96690.00
2018-07-02T18:01:29.852Z,96693.00
2018-07-02T18:04:00.880Z,96685.00
2018-07-02T18:06:31.945Z,96682.00
2018-07-02T18:09:03.189Z,96684.00
2018-07-02T18:11:38.785Z,96679.00
2018-07-02T18:14:11.273Z,96679.00
2018-07-02T18:16:42.323Z,96680.00
2018-07-02T18:19:14.011Z,96680.00
2018-07-02T18:21:44.600Z,96684.00
2018-07-02T18:24:15.269Z,96680.00
2018-07-02T18:26:45.918Z,96685.00
2018-07-02T18:29:17.813Z,96685.00
2018-07-02T18:31:49.116Z,96696.00
2018-07-02T18:34:30.047Z,96689.00
2018-07-02T18:37:15.299Z,96690.00
2018-07-02T18:39:45.666Z,96690.00
2018-07-02T18:42:15.790Z,96691.00
2018-07-02T18:44:46.063Z,96690.00
2018-07-02T18:47:16.349Z,96688.00
2018-07-02T18:49:46.651Z,96688.00
2018-07-02T18:52:16.788Z,96687.00
2018-07-02T18:54:47.132Z,96687.00
2018-07-02T18:57:17.277Z,96689.00
2018-07-02T18:59:47.592Z,96683.00
2018-07-02T19:02:17.814Z,96681.00
2018-07-02T19:04:48.288Z,96684.00
2018-07-02T19:07:18.694Z,96691.00
2018-07-02T19:09:49.198Z,96693.00
2018-07-02T19:12:19.791Z,96698.00
2018-07-02T19:14:50.883Z,96699.00
2018-07-02T19:17:21.736Z,96708.00
2018-07-02T19:19:52.575Z,96711.00
2018-07-02T19:22:23.244Z,96708.00
2018-07-02T19:24:53.892Z,96713.00
2018-07-02T19:27:43.749Z,96714.00
2018-07-02T19:30:15.604Z,96727.00
2018-07-02T19:32:46.756Z,96737.00
2018-07-02T19:35:17.636Z,96737.00
2018-07-02T19:37:48.576Z,96741.00
2018-07-02T19:40:19.653Z,96739.00
2018-07-02T19:42:50.294Z,96748.00
2018-07-02T19:45:21.676Z,96747.00
2018-07-02T19:47:53.958Z,96753.00
2018-07-02T19:50:25.662Z,96758.00
2018-07-02T19:52:56.683Z,96770.00
2018-07-02T19:55:27.722Z,96779.00
2018-07-02T19:57:58.736Z,96781.00
2018-07-02T20:00:33.730Z,96786.00
2018-07-02T20:03:04.465Z,96793.00
2018-07-02T20:05:35.775Z,96792.00
2018-07-02T20:08:06.791Z,96796.00
2018-07-02T20:10:37.823Z,96795.00
2018-07-02T20:13:09.439Z,96798.00
2018-07-02T20:15:40.355Z,96801.00
2018-07-02T20:18:16.848Z,96814.00
2018-07-02T20:20:47.881Z,96824.00
2018-07-02T20:23:19.377Z,96827.00
2018-07-02T20:25:50.399Z,96830.00
2018-07-02T20:28:21.520Z,96825.00
2018-07-02T20:30:52.662Z,96828.00
2018-07-02T20:33:23.029Z,96829.00
2018-07-02T20:35:53.914Z,96836.00
2018-07-02T20:38:24.674Z,96830.00
2018-07-02T20:41:08.072Z,96827.00
2018-07-02T20:43:38.916Z,96825.00
2018-07-02T20:46:09.701Z,96830.00
2018-07-02T20:48:40.971Z,96830.00
2018-07-02T20:51:35.987Z,96823.00
2018-07-02T20:54:06.956Z,96825.00
2018-07-02T20:56:37.679Z,96825.00
2018-07-02T20:59:08.652Z,96824.00
2018-07-02T21:01:40.001Z,96828.00
2018-07-02T21:04:10.332Z,96835.00
2018-07-02T21:06:50.751Z,96840.00
2018-07-02T21:09:21.580Z,96836.00
2018-07-02T21:11:51.851Z,96834.00
2018-07-02T21:14:22.334Z,96829.00
2018-07-02T21:16:56.294Z,96824.00
2018-07-02T21:19:27.778Z,96824.00
2018-07-02T21:21:59.136Z,96821.00
2018-07-02T21:24:30.151Z,96830.00
2018-07-02T21:27:01.344Z,96825.00
2018-07-02T21:29:32.324Z,96826.00
2018-07-02T21:32:03.311Z,96823.00
2018-07-02T21:34:33.863Z,96823.00
2018-07-02T21:37:04.832Z,96832.00
2018-07-02T21:39:36.281Z,96830.00
2018-07-02T21:42:07.422Z,96830.00
2018-07-02T21:44:38.798Z,96830.00
2018-07-02T21:47:10.272Z,96830.00
2018-07-02T21:49:40.980Z,96837.00
2018-07-02T21:52:11.974Z,96835.00
2018-07-02T21:54:42.775Z,96831.00
2018-07-02T21:57:13.612Z,96829.00
2018-07-02T21:59:44.827Z,96826.00
2018-07-02T22:02:15.644Z,96823.00
2018-07-02T22:04:46.951Z,96833.00
2018-07-02T22:07:18.040Z,96835.00
2018-07-02T22:09:48.979Z,96839.00
2018-07-02T22:12:19.643Z,96843.00
2018-07-02T22:14:50.866Z,96851.00
2018-07-02T22:17:21.987Z,96854.00
2018-07-02T22:19:52.958Z,96853.00
2018-07-02T22:22:23.901Z,96852.00
2018-07-02T22:24:54.924Z,96844.00
2018-07-02T22:27:25.943Z,96849.00
2018-07-02T22:29:57.215Z,96852.00
2018-07-02T22:32:28.507Z,96858.00
2018-07-02T22:34:59.271Z,96852.00
2018-07-02T22:37:30.227Z,96849.00
2018-07-02T22:40:01.545Z,96851.00
2018-07-02T22:42:32.570Z,96850.00
2018-07-02T22:45:03.551Z,96848.00
2018-07-02T22:47:35.273Z,96844.00
2018-07-02T22:50:06.284Z,96843.00
2018-07-02T22:52:36.747Z,96851.00
2018-07-02T22:55:07.200Z,96846.00
2018-07-02T22:57:37.596Z,96843.00
2018-07-02T23:00:08.549Z,96839.00
2018-07-02T23:02:39.033Z,96839.00
2018-07-02T23:05:09.534Z,96839.00
2018-07-02T23:07:39.648Z,96839.00
2018-07-02T23:10:09.989Z,96842.00
2018-07-02T23:12:41.902Z,96843.00
2018-07-02T23:15:13.008Z,96839.00
2018-07-02T23:17:44.296Z,96840.00
2018-07-02T23:20:15.040Z,96837.00
2018-07-02T23:23:00.449Z,96838.00
2018-07-02T23:25:31.758Z,96837.00
2018-07-02T23:28:03.131Z,96844.00
2018-07-02T23:30:37.401Z,96837.00
2018-07-02T23:33:08.093Z,96836.00
2018-07-02T23:35:38.970Z,96834.00
2018-07-02T23:38:09.358Z,96839.00
2018-07-02T23:40:40.095Z,96838.00
2018-07-02T23:43:11.033Z,96831.00
2018-07-02T23:45:41.958Z,96833.00
2018-07-02T23:48:12.874Z,96831.00
2018-07-02T23:50:43.499Z,96832.00
2018-07-02T23:53:14.639Z,96828.00
2018-07-02T23:55:45.232Z,96832.00
2018-07-02T23:58:16.415Z,96832.00
